sensor_id;sensor_type;location;lat;lon;timestamp;P1;durP1;ratioP1;P2;durP2;ratioP2
19687;SDS011;9993;52.008;4.732;2022-11-21T00:01:50;40.17;;;22.33;;
19687;SDS011;9993;52.008;4.732;2022-11-21T00:04:15;48.87;;;24.10;;
19687;SDS011;9993;52.008;4.732;2022-11-21T00:06:41;51.57;;;25.40;;
19687;SDS011;9993;52.008;4.732;2022-11-21T00:09:06;51.33;;;24.97;;
19687;SDS011;9993;52.008;4.732;2022-11-21T00:11:31;45.10;;;22.33;;
19687;SDS011;9993;52.008;4.732;2022-11-21T00:13:56;44.20;;;22.57;;
19687;SDS011;9993;52.008;4.732;2022-11-21T00:16:22;39.27;;;21.97;;
19687;SDS011;9993;52.008;4.732;2022-11-21T00:18:47;42.77;;;21.97;;
19687;SDS011;9993;52.008;4.732;2022-11-21T00:21:13;50.57;;;24.37;;
19687;SDS011;9993;52.008;4.732;2022-11-21T00:23:39;52.13;;;24.43;;
19687;SDS011;9993;52.008;4.732;2022-11-21T00:26:24;47.27;;;25.17;;
19687;SDS011;9993;52.008;4.732;2022-11-21T00:29:02;57.23;;;25.07;;
19687;SDS011;9993;52.008;4.732;2022-11-21T00:31:30;64.23;;;26.87;;
19687;SDS011;9993;52.008;4.732;2022-11-21T00:34:18;59.17;;;29.00;;
19687;SDS011;9993;52.008;4.732;2022-11-21T00:36:46;66.37;;;29.57;;
19687;SDS011;9993;52.008;4.732;2022-11-21T00:39:13;61.97;;;27.83;;
19687;SDS011;9993;52.008;4.732;2022-11-21T00:41:39;62.57;;;27.90;;
19687;SDS011;9993;52.008;4.732;2022-11-21T00:44:04;62.57;;;26.93;;
19687;SDS011;9993;52.008;4.732;2022-11-21T01:10:10;69.53;;;29.03;;
19687;SDS011;9993;52.008;4.732;2022-11-21T01:12:35;79.87;;;27.80;;
19687;SDS011;9993;52.008;4.732;2022-11-21T01:15:06;69.87;;;26.90;;
19687;SDS011;9993;52.008;4.732;2022-11-21T01:17:51;55.40;;;26.63;;
19687;SDS011;9993;52.008;4.732;2022-11-21T01:20:17;66.90;;;26.30;;
19687;SDS011;9993;52.008;4.732;2022-11-21T01:22:42;70.63;;;27.03;;
19687;SDS011;9993;52.008;4.732;2022-11-21T01:25:07;72.97;;;27.50;;
19687;SDS011;9993;52.008;4.732;2022-11-21T01:27:33;86.93;;;30.30;;
19687;SDS011;9993;52.008;4.732;2022-11-21T01:29:58;88.10;;;28.57;;
19687;SDS011;9993;52.008;4.732;2022-11-21T01:32:23;76.60;;;26.90;;
19687;SDS011;9993;52.008;4.732;2022-11-21T01:34:48;121.80;;;31.80;;
19687;SDS011;9993;52.008;4.732;2022-11-21T01:37:18;70.97;;;28.43;;
19687;SDS011;9993;52.008;4.732;2022-11-21T01:39:43;89.37;;;28.57;;
19687;SDS011;9993;52.008;4.732;2022-11-21T01:42:10;103.60;;;31.60;;
19687;SDS011;9993;52.008;4.732;2022-11-21T01:44:47;124.13;;;29.23;;
19687;SDS011;9993;52.008;4.732;2022-11-21T01:47:13;92.37;;;28.33;;
19687;SDS011;9993;52.008;4.732;2022-11-21T01:49:38;83.50;;;28.07;;
19687;SDS011;9993;52.008;4.732;2022-11-21T01:52:19;85.20;;;28.10;;
19687;SDS011;9993;52.008;4.732;2022-11-21T01:57:14;69.03;;;27.77;;
19687;SDS011;9993;52.008;4.732;2022-11-21T01:59:43;58.27;;;26.13;;
19687;SDS011;9993;52.008;4.732;2022-11-21T02:02:12;67.23;;;27.53;;
19687;SDS011;9993;52.008;4.732;2022-11-21T02:04:39;69.83;;;25.60;;
19687;SDS011;9993;52.008;4.732;2022-11-21T02:07:08;73.70;;;26.27;;
19687;SDS011;9993;52.008;4.732;2022-11-21T02:09:49;58.27;;;23.67;;
19687;SDS011;9993;52.008;4.732;2022-11-21T02:12:26;57.93;;;24.53;;
19687;SDS011;9993;52.008;4.732;2022-11-21T02:14:55;79.10;;;25.20;;
19687;SDS011;9993;52.008;4.732;2022-11-21T02:17:21;75.73;;;27.07;;
19687;SDS011;9993;52.008;4.732;2022-11-21T02:22:18;63.93;;;24.57;;
19687;SDS011;9993;52.008;4.732;2022-11-21T02:24:45;50.57;;;22.50;;
19687;SDS011;9993;52.008;4.732;2022-11-21T02:27:13;66.23;;;25.33;;
19687;SDS011;9993;52.008;4.732;2022-11-21T02:29:40;66.27;;;23.37;;
19687;SDS011;9993;52.008;4.732;2022-11-21T02:32:05;58.60;;;22.73;;
19687;SDS011;9993;52.008;4.732;2022-11-21T02:38:13;62.07;;;26.57;;
19687;SDS011;9993;52.008;4.732;2022-11-21T02:40:47;116.60;;;25.23;;
19687;SDS011;9993;52.008;4.732;2022-11-21T02:45:41;93.80;;;27.20;;
19687;SDS011;9993;52.008;4.732;2022-11-21T02:48:10;72.97;;;25.33;;
19687;SDS011;9993;52.008;4.732;2022-11-21T02:50:36;64.83;;;23.70;;
19687;SDS011;9993;52.008;4.732;2022-11-21T02:53:02;71.80;;;23.90;;
19687;SDS011;9993;52.008;4.732;2022-11-21T02:55:28;69.70;;;24.00;;
19687;SDS011;9993;52.008;4.732;2022-11-21T02:57:54;78.10;;;23.93;;
19687;SDS011;9993;52.008;4.732;2022-11-21T03:00:19;64.07;;;20.93;;
19687;SDS011;9993;52.008;4.732;2022-11-21T03:02:44;61.73;;;22.20;;
19687;SDS011;9993;52.008;4.732;2022-11-21T03:05:18;79.77;;;23.17;;
19687;SDS011;9993;52.008;4.732;2022-11-21T03:07:44;63.20;;;23.40;;
19687;SDS011;9993;52.008;4.732;2022-11-21T03:10:10;85.37;;;24.60;;
19687;SDS011;9993;52.008;4.732;2022-11-21T03:12:39;75.30;;;23.97;;
19687;SDS011;9993;52.008;4.732;2022-11-21T03:15:05;84.57;;;25.77;;
19687;SDS011;9993;52.008;4.732;2022-11-21T03:17:30;76.00;;;25.07;;
19687;SDS011;9993;52.008;4.732;2022-11-21T03:19:55;114.53;;;29.80;;
19687;SDS011;9993;52.008;4.732;2022-11-21T03:22:21;66.23;;;24.07;;
19687;SDS011;9993;52.008;4.732;2022-11-21T03:24:46;73.73;;;24.10;;
19687;SDS011;9993;52.008;4.732;2022-11-21T03:27:11;61.23;;;23.13;;
19687;SDS011;9993;52.008;4.732;2022-11-21T03:29:36;87.50;;;21.47;;
19687;SDS011;9993;52.008;4.732;2022-11-21T03:32:02;52.57;;;22.63;;
19687;SDS011;9993;52.008;4.732;2022-11-21T03:34:27;61.23;;;22.93;;
19687;SDS011;9993;52.008;4.732;2022-11-21T03:36:52;64.87;;;23.47;;
19687;SDS011;9993;52.008;4.732;2022-11-21T03:42:34;60.63;;;21.27;;
19687;SDS011;9993;52.008;4.732;2022-11-21T03:45:00;58.57;;;21.77;;
19687;SDS011;9993;52.008;4.732;2022-11-21T03:50:14;77.10;;;23.17;;
19687;SDS011;9993;52.008;4.732;2022-11-21T03:52:44;93.53;;;24.37;;
19687;SDS011;9993;52.008;4.732;2022-11-21T03:55:10;70.87;;;24.43;;
19687;SDS011;9993;52.008;4.732;2022-11-21T03:57:35;78.67;;;22.43;;
19687;SDS011;9993;52.008;4.732;2022-11-21T04:03:42;59.67;;;21.67;;
19687;SDS011;9993;52.008;4.732;2022-11-21T04:09:43;76.13;;;23.60;;
19687;SDS011;9993;52.008;4.732;2022-11-21T04:12:11;80.57;;;23.60;;
19687;SDS011;9993;52.008;4.732;2022-11-21T04:14:36;66.83;;;24.90;;
19687;SDS011;9993;52.008;4.732;2022-11-21T04:17:05;77.90;;;24.63;;
19687;SDS011;9993;52.008;4.732;2022-11-21T04:19:30;64.47;;;22.87;;
19687;SDS011;9993;52.008;4.732;2022-11-21T04:22:11;78.10;;;25.10;;
19687;SDS011;9993;52.008;4.732;2022-11-21T04:24:39;67.97;;;25.03;;
19687;SDS011;9993;52.008;4.732;2022-11-21T04:27:14;73.53;;;23.03;;
19687;SDS011;9993;52.008;4.732;2022-11-21T04:29:40;57.83;;;21.30;;
19687;SDS011;9993;52.008;4.732;2022-11-21T04:32:05;64.47;;;23.20;;
19687;SDS011;9993;52.008;4.732;2022-11-21T04:37:45;55.40;;;18.57;;
19687;SDS011;9993;52.008;4.732;2022-11-21T04:53:19;93.37;;;24.10;;
19687;SDS011;9993;52.008;4.732;2022-11-21T04:58:23;67.13;;;19.33;;
19687;SDS011;9993;52.008;4.732;2022-11-21T05:00:51;69.27;;;24.60;;
19687;SDS011;9993;52.008;4.732;2022-11-21T05:03:16;75.40;;;17.47;;
19687;SDS011;9993;52.008;4.732;2022-11-21T05:05:41;66.50;;;20.47;;
19687;SDS011;9993;52.008;4.732;2022-11-21T05:08:07;91.33;;;24.43;;
19687;SDS011;9993;52.008;4.732;2022-11-21T05:10:32;63.00;;;21.07;;
19687;SDS011;9993;52.008;4.732;2022-11-21T05:13:17;59.27;;;20.30;;
19687;SDS011;9993;52.008;4.732;2022-11-21T05:15:45;53.97;;;18.93;;
19687;SDS011;9993;52.008;4.732;2022-11-21T05:18:11;52.43;;;18.87;;
19687;SDS011;9993;52.008;4.732;2022-11-21T05:20:42;67.47;;;21.73;;
19687;SDS011;9993;52.008;4.732;2022-11-21T05:23:19;50.67;;;18.23;;
19687;SDS011;9993;52.008;4.732;2022-11-21T05:29:05;37.67;;;16.17;;
19687;SDS011;9993;52.008;4.732;2022-11-21T05:37:36;63.37;;;21.17;;
19687;SDS011;9993;52.008;4.732;2022-11-21T05:40:12;74.00;;;21.37;;
19687;SDS011;9993;52.008;4.732;2022-11-21T05:42:58;67.57;;;20.77;;
19687;SDS011;9993;52.008;4.732;2022-11-21T05:45:54;68.20;;;20.33;;
19687;SDS011;9993;52.008;4.732;2022-11-21T06:01:28;57.97;;;20.13;;
19687;SDS011;9993;52.008;4.732;2022-11-21T06:04:15;60.00;;;19.80;;
19687;SDS011;9993;52.008;4.732;2022-11-21T06:07:06;42.07;;;18.73;;
19687;SDS011;9993;52.008;4.732;2022-11-21T06:14:50;50.03;;;19.47;;
19687;SDS011;9993;52.008;4.732;2022-11-21T06:17:15;38.03;;;18.53;;
19687;SDS011;9993;52.008;4.732;2022-11-21T06:22:24;50.33;;;20.27;;
19687;SDS011;9993;52.008;4.732;2022-11-21T06:24:51;63.63;;;19.87;;
19687;SDS011;9993;52.008;4.732;2022-11-21T06:27:19;37.10;;;18.30;;
19687;SDS011;9993;52.008;4.732;2022-11-21T06:29:52;48.00;;;21.10;;
19687;SDS011;9993;52.008;4.732;2022-11-21T06:32:17;39.40;;;18.40;;
19687;SDS011;9993;52.008;4.732;2022-11-21T06:34:43;39.47;;;19.23;;
19687;SDS011;9993;52.008;4.732;2022-11-21T06:37:08;39.03;;;19.87;;
19687;SDS011;9993;52.008;4.732;2022-11-21T06:39:33;37.30;;;19.40;;
19687;SDS011;9993;52.008;4.732;2022-11-21T06:41:59;37.73;;;18.57;;
19687;SDS011;9993;52.008;4.732;2022-11-21T06:44:25;33.77;;;16.40;;
19687;SDS011;9993;52.008;4.732;2022-11-21T06:46:53;40.20;;;18.73;;
19687;SDS011;9993;52.008;4.732;2022-11-21T06:49:18;34.10;;;17.33;;
19687;SDS011;9993;52.008;4.732;2022-11-21T06:51:51;35.57;;;16.63;;
19687;SDS011;9993;52.008;4.732;2022-11-21T06:54:42;41.80;;;18.10;;
19687;SDS011;9993;52.008;4.732;2022-11-21T06:57:33;32.53;;;16.23;;
19687;SDS011;9993;52.008;4.732;2022-11-21T06:59:59;45.80;;;19.33;;
19687;SDS011;9993;52.008;4.732;2022-11-21T07:02:24;36.27;;;17.77;;
19687;SDS011;9993;52.008;4.732;2022-11-21T07:04:51;34.13;;;17.70;;
19687;SDS011;9993;52.008;4.732;2022-11-21T07:07:16;42.57;;;18.93;;
19687;SDS011;9993;52.008;4.732;2022-11-21T07:09:41;33.10;;;18.17;;
19687;SDS011;9993;52.008;4.732;2022-11-21T07:12:08;33.57;;;16.23;;
19687;SDS011;9993;52.008;4.732;2022-11-21T07:14:52;36.67;;;18.20;;
19687;SDS011;9993;52.008;4.732;2022-11-21T07:17:17;39.77;;;18.37;;
19687;SDS011;9993;52.008;4.732;2022-11-21T07:19:46;31.70;;;17.70;;
19687;SDS011;9993;52.008;4.732;2022-11-21T07:22:11;35.67;;;18.13;;
19687;SDS011;9993;52.008;4.732;2022-11-21T07:24:38;37.67;;;17.07;;
19687;SDS011;9993;52.008;4.732;2022-11-21T07:27:03;30.97;;;16.03;;
19687;SDS011;9993;52.008;4.732;2022-11-21T07:32:27;37.63;;;18.40;;
19687;SDS011;9993;52.008;4.732;2022-11-21T07:34:53;39.30;;;17.97;;
19687;SDS011;9993;52.008;4.732;2022-11-21T07:37:40;31.30;;;16.00;;
19687;SDS011;9993;52.008;4.732;2022-11-21T07:40:24;33.77;;;16.63;;
19687;SDS011;9993;52.008;4.732;2022-11-21T07:45:54;35.57;;;16.27;;
19687;SDS011;9993;52.008;4.732;2022-11-21T07:48:21;30.80;;;13.57;;
19687;SDS011;9993;52.008;4.732;2022-11-21T07:50:46;31.57;;;18.33;;
19687;SDS011;9993;52.008;4.732;2022-11-21T07:53:13;27.47;;;14.57;;
19687;SDS011;9993;52.008;4.732;2022-11-21T07:55:59;31.63;;;16.17;;
19687;SDS011;9993;52.008;4.732;2022-11-21T07:58:25;28.63;;;16.67;;
19687;SDS011;9993;52.008;4.732;2022-11-21T08:09:01;28.47;;;15.17;;
19687;SDS011;9993;52.008;4.732;2022-11-21T08:14:38;30.40;;;15.63;;
19687;SDS011;9993;52.008;4.732;2022-11-21T08:17:08;31.70;;;14.73;;
19687;SDS011;9993;52.008;4.732;2022-11-21T08:19:33;29.20;;;14.67;;
19687;SDS011;9993;52.008;4.732;2022-11-21T08:22:21;25.33;;;13.73;;
19687;SDS011;9993;52.008;4.732;2022-11-21T08:24:47;32.60;;;13.23;;
19687;SDS011;9993;52.008;4.732;2022-11-21T08:27:18;29.60;;;14.83;;
19687;SDS011;9993;52.008;4.732;2022-11-21T08:29:49;26.67;;;13.53;;
19687;SDS011;9993;52.008;4.732;2022-11-21T08:35:17;16.33;;;10.10;;
19687;SDS011;9993;52.008;4.732;2022-11-21T08:37:43;25.83;;;12.70;;
19687;SDS011;9993;52.008;4.732;2022-11-21T08:40:08;19.90;;;11.63;;
19687;SDS011;9993;52.008;4.732;2022-11-21T08:42:42;23.83;;;14.03;;
19687;SDS011;9993;52.008;4.732;2022-11-21T08:45:59;28.33;;;14.33;;
19687;SDS011;9993;52.008;4.732;2022-11-21T09:03:08;24.43;;;13.10;;
19687;SDS011;9993;52.008;4.732;2022-11-21T09:05:34;28.67;;;15.00;;
19687;SDS011;9993;52.008;4.732;2022-11-21T09:21:58;28.63;;;14.13;;
19687;SDS011;9993;52.008;4.732;2022-11-21T09:24:25;22.33;;;13.33;;
19687;SDS011;9993;52.008;4.732;2022-11-21T09:26:50;20.40;;;13.70;;
19687;SDS011;9993;52.008;4.732;2022-11-21T09:29:16;25.37;;;12.90;;
19687;SDS011;9993;52.008;4.732;2022-11-21T09:31:44;21.13;;;11.67;;
19687;SDS011;9993;52.008;4.732;2022-11-21T09:34:14;21.20;;;13.00;;
19687;SDS011;9993;52.008;4.732;2022-11-21T09:36:39;21.77;;;13.17;;
19687;SDS011;9993;52.008;4.732;2022-11-21T09:39:04;19.07;;;13.00;;
19687;SDS011;9993;52.008;4.732;2022-11-21T09:41:48;25.37;;;11.50;;
19687;SDS011;9993;52.008;4.732;2022-11-21T09:47:04;23.40;;;12.30;;
19687;SDS011;9993;52.008;4.732;2022-11-21T09:49:34;16.33;;;11.13;;
19687;SDS011;9993;52.008;4.732;2022-11-21T09:52:02;26.07;;;13.27;;
19687;SDS011;9993;52.008;4.732;2022-11-21T09:57:31;14.40;;;9.70;;
19687;SDS011;9993;52.008;4.732;2022-11-21T10:03:07;22.57;;;11.73;;
19687;SDS011;9993;52.008;4.732;2022-11-21T10:05:47;22.20;;;10.23;;
19687;SDS011;9993;52.008;4.732;2022-11-21T10:08:27;23.23;;;10.77;;
19687;SDS011;9993;52.008;4.732;2022-11-21T10:47:50;27.40;;;11.47;;
19687;SDS011;9993;52.008;4.732;2022-11-21T10:53:42;19.87;;;10.63;;
19687;SDS011;9993;52.008;4.732;2022-11-21T10:59:28;23.47;;;9.77;;
19687;SDS011;9993;52.008;4.732;2022-11-21T11:10:39;20.57;;;10.33;;
19687;SDS011;9993;52.008;4.732;2022-11-21T11:47:57;12.15;;;6.75;;
19687;SDS011;9993;52.008;4.732;2022-11-21T11:50:32;7.65;;;4.80;;
19687;SDS011;9993;52.008;4.732;2022-11-21T11:53:10;11.30;;;5.78;;
19687;SDS011;9993;52.008;4.732;2022-11-21T11:55:45;9.60;;;4.70;;
19687;SDS011;9993;52.008;4.732;2022-11-21T12:01:22;8.17;;;5.20;;
19687;SDS011;9993;52.008;4.732;2022-11-21T14:18:54;8.10;;;3.50;;
19687;SDS011;9993;52.008;4.732;2022-11-21T14:21:27;6.50;;;3.93;;
19687;SDS011;9993;52.008;4.732;2022-11-21T14:26:56;4.23;;;3.70;;
19687;SDS011;9993;52.008;4.732;2022-11-21T14:29:37;6.80;;;4.73;;
19687;SDS011;9993;52.008;4.732;2022-11-21T14:32:39;7.40;;;3.97;;
19687;SDS011;9993;52.008;4.732;2022-11-21T14:35:17;5.87;;;3.50;;
19687;SDS011;9993;52.008;4.732;2022-11-21T14:40:32;7.33;;;3.73;;
19687;SDS011;9993;52.008;4.732;2022-11-21T14:43:00;9.90;;;3.60;;
19687;SDS011;9993;52.008;4.732;2022-11-21T14:46:10;9.43;;;3.43;;
19687;SDS011;9993;52.008;4.732;2022-11-21T14:49:03;9.23;;;4.70;;
19687;SDS011;9993;52.008;4.732;2022-11-21T14:51:28;8.53;;;3.63;;
19687;SDS011;9993;52.008;4.732;2022-11-21T14:53:53;5.63;;;3.20;;
19687;SDS011;9993;52.008;4.732;2022-11-21T14:56:20;5.77;;;3.57;;
19687;SDS011;9993;52.008;4.732;2022-11-21T15:02:16;9.07;;;4.07;;
19687;SDS011;9993;52.008;4.732;2022-11-21T15:04:42;7.27;;;4.10;;
19687;SDS011;9993;52.008;4.732;2022-11-21T15:07:19;7.13;;;3.50;;
19687;SDS011;9993;52.008;4.732;2022-11-21T15:09:45;9.37;;;3.47;;
19687;SDS011;9993;52.008;4.732;2022-11-21T15:12:10;8.73;;;3.80;;
19687;SDS011;9993;52.008;4.732;2022-11-21T15:17:36;8.97;;;3.90;;
19687;SDS011;9993;52.008;4.732;2022-11-21T15:22:37;7.23;;;3.60;;
19687;SDS011;9993;52.008;4.732;2022-11-21T15:25:07;6.80;;;3.23;;
19687;SDS011;9993;52.008;4.732;2022-11-21T15:27:32;3.33;;;3.03;;
19687;SDS011;9993;52.008;4.732;2022-11-21T15:35:27;6.23;;;3.47;;
19687;SDS011;9993;52.008;4.732;2022-11-21T15:38:30;6.27;;;3.60;;
19687;SDS011;9993;52.008;4.732;2022-11-21T15:40:58;7.90;;;3.90;;
19687;SDS011;9993;52.008;4.732;2022-11-21T15:44:13;5.53;;;3.57;;
19687;SDS011;9993;52.008;4.732;2022-11-21T15:46:18;5.93;;;4.40;;
19687;SDS011;9993;52.008;4.732;2022-11-21T15:48:44;10.97;;;6.40;;
19687;SDS011;9993;52.008;4.732;2022-11-21T15:53:45;6.17;;;4.77;;
19687;SDS011;9993;52.008;4.732;2022-11-21T15:56:14;51.63;;;30.40;;
19687;SDS011;9993;52.008;4.732;2022-11-21T15:58:40;9.43;;;4.97;;
19687;SDS011;9993;52.008;4.732;2022-11-21T16:01:09;11.00;;;3.57;;
19687;SDS011;9993;52.008;4.732;2022-11-21T16:03:35;8.10;;;3.70;;
19687;SDS011;9993;52.008;4.732;2022-11-21T16:06:07;6.90;;;3.40;;
19687;SDS011;9993;52.008;4.732;2022-11-21T16:08:33;5.50;;;3.67;;
19687;SDS011;9993;52.008;4.732;2022-11-21T16:10:58;6.77;;;3.70;;
19687;SDS011;9993;52.008;4.732;2022-11-21T16:13:24;4.37;;;3.73;;
19687;SDS011;9993;52.008;4.732;2022-11-21T16:15:50;7.33;;;3.73;;
19687;SDS011;9993;52.008;4.732;2022-11-21T16:18:15;4.83;;;3.23;;
19687;SDS011;9993;52.008;4.732;2022-11-21T16:20:40;3.77;;;3.13;;
19687;SDS011;9993;52.008;4.732;2022-11-21T16:23:05;8.33;;;4.17;;
19687;SDS011;9993;52.008;4.732;2022-11-21T16:25:32;5.33;;;4.20;;
19687;SDS011;9993;52.008;4.732;2022-11-21T16:27:59;9.23;;;4.07;;
19687;SDS011;9993;52.008;4.732;2022-11-21T16:30:24;6.83;;;4.17;;
19687;SDS011;9993;52.008;4.732;2022-11-21T16:32:49;7.40;;;3.60;;
19687;SDS011;9993;52.008;4.732;2022-11-21T16:35:16;6.27;;;3.77;;
19687;SDS011;9993;52.008;4.732;2022-11-21T16:37:42;9.27;;;4.60;;
19687;SDS011;9993;52.008;4.732;2022-11-21T16:40:08;5.07;;;4.57;;
19687;SDS011;9993;52.008;4.732;2022-11-21T16:45:20;6.27;;;4.70;;
19687;SDS011;9993;52.008;4.732;2022-11-21T16:47:46;12.17;;;4.67;;
19687;SDS011;9993;52.008;4.732;2022-11-21T16:50:11;10.00;;;4.77;;
19687;SDS011;9993;52.008;4.732;2022-11-21T17:03:37;9.00;;;4.60;;
19687;SDS011;9993;52.008;4.732;2022-11-21T17:06:03;9.57;;;4.80;;
19687;SDS011;9993;52.008;4.732;2022-11-21T17:08:28;8.13;;;4.70;;
19687;SDS011;9993;52.008;4.732;2022-11-21T17:10:54;11.63;;;4.90;;
19687;SDS011;9993;52.008;4.732;2022-11-21T17:13:19;11.33;;;5.73;;
19687;SDS011;9993;52.008;4.732;2022-11-21T17:16:02;9.77;;;5.13;;
19687;SDS011;9993;52.008;4.732;2022-11-21T17:21:16;15.60;;;6.17;;
19687;SDS011;9993;52.008;4.732;2022-11-21T17:23:46;8.10;;;5.07;;
19687;SDS011;9993;52.008;4.732;2022-11-21T17:26:13;11.13;;;5.30;;
19687;SDS011;9993;52.008;4.732;2022-11-21T17:36:34;8.93;;;5.37;;
19687;SDS011;9993;52.008;4.732;2022-11-21T17:39:02;8.87;;;5.30;;
19687;SDS011;9993;52.008;4.732;2022-11-21T17:41:27;9.57;;;5.37;;
19687;SDS011;9993;52.008;4.732;2022-11-21T17:44:08;10.23;;;5.50;;
19687;SDS011;9993;52.008;4.732;2022-11-21T17:46:36;9.70;;;5.40;;
19687;SDS011;9993;52.008;4.732;2022-11-21T17:49:02;8.97;;;5.77;;
19687;SDS011;9993;52.008;4.732;2022-11-21T17:54:14;9.20;;;5.73;;
19687;SDS011;9993;52.008;4.732;2022-11-21T18:01:53;8.27;;;5.10;;
19687;SDS011;9993;52.008;4.732;2022-11-21T18:04:19;12.87;;;5.73;;
19687;SDS011;9993;52.008;4.732;2022-11-21T18:09:32;8.30;;;5.77;;
19687;SDS011;9993;52.008;4.732;2022-11-21T18:11:58;9.80;;;5.50;;
19687;SDS011;9993;52.008;4.732;2022-11-21T18:14:26;10.73;;;6.23;;
19687;SDS011;9993;52.008;4.732;2022-11-21T18:16:52;10.83;;;5.43;;
19687;SDS011;9993;52.008;4.732;2022-11-21T18:19:18;8.67;;;5.30;;
19687;SDS011;9993;52.008;4.732;2022-11-21T18:21:43;12.60;;;5.53;;
19687;SDS011;9993;52.008;4.732;2022-11-21T18:24:12;12.13;;;5.20;;
19687;SDS011;9993;52.008;4.732;2022-11-21T18:26:37;9.57;;;5.20;;
19687;SDS011;9993;52.008;4.732;2022-11-21T18:29:27;9.70;;;4.97;;
19687;SDS011;9993;52.008;4.732;2022-11-21T18:39:57;15.30;;;5.37;;
19687;SDS011;9993;52.008;4.732;2022-11-21T18:42:23;7.83;;;5.73;;
19687;SDS011;9993;52.008;4.732;2022-11-21T18:44:51;7.53;;;5.63;;
19687;SDS011;9993;52.008;4.732;2022-11-21T18:47:16;6.33;;;5.47;;
19687;SDS011;9993;52.008;4.732;2022-11-21T18:49:54;10.40;;;5.30;;
19687;SDS011;9993;52.008;4.732;2022-11-21T18:52:34;9.47;;;5.27;;
19687;SDS011;9993;52.008;4.732;2022-11-21T18:55:02;6.60;;;4.13;;
19687;SDS011;9993;52.008;4.732;2022-11-21T18:57:34;8.33;;;4.73;;
19687;SDS011;9993;52.008;4.732;2022-11-21T19:00:13;11.20;;;5.70;;
19687;SDS011;9993;52.008;4.732;2022-11-21T19:02:42;13.87;;;4.30;;
19687;SDS011;9993;52.008;4.732;2022-11-21T19:05:10;8.67;;;4.70;;
19687;SDS011;9993;52.008;4.732;2022-11-21T19:12:59;9.27;;;5.17;;
19687;SDS011;9993;52.008;4.732;2022-11-21T19:15:34;8.93;;;5.23;;
19687;SDS011;9993;52.008;4.732;2022-11-21T19:18:02;8.57;;;4.97;;
19687;SDS011;9993;52.008;4.732;2022-11-21T19:20:27;8.27;;;5.50;;
19687;SDS011;9993;52.008;4.732;2022-11-21T19:22:53;8.63;;;5.57;;
19687;SDS011;9993;52.008;4.732;2022-11-21T19:25:21;8.93;;;5.60;;
19687;SDS011;9993;52.008;4.732;2022-11-21T19:27:52;5.83;;;4.27;;
19687;SDS011;9993;52.008;4.732;2022-11-21T19:30:30;10.83;;;5.47;;
19687;SDS011;9993;52.008;4.732;2022-11-21T19:33:18;12.40;;;5.63;;
19687;SDS011;9993;52.008;4.732;2022-11-21T19:36:19;6.93;;;5.37;;
19687;SDS011;9993;52.008;4.732;2022-11-21T19:46:21;8.93;;;5.33;;
19687;SDS011;9993;52.008;4.732;2022-11-21T20:05:37;6.77;;;3.80;;
19687;SDS011;9993;52.008;4.732;2022-11-21T20:16:24;7.83;;;4.57;;
19687;SDS011;9993;52.008;4.732;2022-11-21T20:18:51;8.90;;;5.00;;
19687;SDS011;9993;52.008;4.732;2022-11-21T20:21:20;6.50;;;5.27;;
19687;SDS011;9993;52.008;4.732;2022-11-21T20:44:52;7.27;;;5.07;;
19687;SDS011;9993;52.008;4.732;2022-11-21T21:05:35;6.47;;;4.53;;
19687;SDS011;9993;52.008;4.732;2022-11-21T21:08:03;9.07;;;4.63;;
19687;SDS011;9993;52.008;4.732;2022-11-21T21:10:28;7.77;;;4.60;;
19687;SDS011;9993;52.008;4.732;2022-11-21T21:12:54;10.67;;;5.20;;
19687;SDS011;9993;52.008;4.732;2022-11-21T21:15:52;11.10;;;4.57;;
19687;SDS011;9993;52.008;4.732;2022-11-21T21:18:20;14.10;;;5.07;;
19687;SDS011;9993;52.008;4.732;2022-11-21T21:20:47;11.87;;;4.43;;
19687;SDS011;9993;52.008;4.732;2022-11-21T21:23:18;9.20;;;4.77;;
19687;SDS011;9993;52.008;4.732;2022-11-21T21:25:43;7.57;;;4.03;;
19687;SDS011;9993;52.008;4.732;2022-11-21T21:28:09;7.03;;;4.50;;
19687;SDS011;9993;52.008;4.732;2022-11-21T21:30:49;12.37;;;4.67;;
19687;SDS011;9993;52.008;4.732;2022-11-21T21:33:35;8.93;;;4.20;;
19687;SDS011;9993;52.008;4.732;2022-11-21T21:36:07;6.10;;;4.47;;
19687;SDS011;9993;52.008;4.732;2022-11-21T21:38:35;7.17;;;4.80;;
19687;SDS011;9993;52.008;4.732;2022-11-21T21:41:02;6.63;;;4.47;;
19687;SDS011;9993;52.008;4.732;2022-11-21T21:43:30;8.13;;;5.33;;
19687;SDS011;9993;52.008;4.732;2022-11-21T21:46:01;11.73;;;5.37;;
19687;SDS011;9993;52.008;4.732;2022-11-21T21:48:29;7.13;;;4.23;;
19687;SDS011;9993;52.008;4.732;2022-11-21T22:06:56;6.97;;;4.77;;
19687;SDS011;9993;52.008;4.732;2022-11-21T22:09:22;7.57;;;5.33;;
19687;SDS011;9993;52.008;4.732;2022-11-21T22:18:19;6.30;;;3.77;;
19687;SDS011;9993;52.008;4.732;2022-11-21T22:20:50;15.93;;;5.83;;
19687;SDS011;9993;52.008;4.732;2022-11-21T22:23:26;13.83;;;5.40;;
19687;SDS011;9993;52.008;4.732;2022-11-21T22:26:16;11.13;;;5.60;;
19687;SDS011;9993;52.008;4.732;2022-11-21T22:28:45;6.77;;;4.87;;
19687;SDS011;9993;52.008;4.732;2022-11-21T22:33:43;8.60;;;5.67;;
19687;SDS011;9993;52.008;4.732;2022-11-21T22:36:12;9.27;;;6.67;;
19687;SDS011;9993;52.008;4.732;2022-11-21T22:38:38;11.53;;;6.33;;
19687;SDS011;9993;52.008;4.732;2022-11-21T22:41:05;6.90;;;4.37;;
19687;SDS011;9993;52.008;4.732;2022-11-21T22:43:32;12.23;;;5.93;;
19687;SDS011;9993;52.008;4.732;2022-11-21T22:46:05;11.33;;;6.90;;
19687;SDS011;9993;52.008;4.732;2022-11-21T22:48:39;12.50;;;5.77;;
19687;SDS011;9993;52.008;4.732;2022-11-21T22:51:07;7.97;;;6.17;;
19687;SDS011;9993;52.008;4.732;2022-11-21T22:53:35;8.83;;;5.73;;
19687;SDS011;9993;52.008;4.732;2022-11-21T22:56:02;7.97;;;5.57;;
19687;SDS011;9993;52.008;4.732;2022-11-21T23:01:20;8.47;;;5.00;;
19687;SDS011;9993;52.008;4.732;2022-11-21T23:04:08;11.63;;;6.30;;
19687;SDS011;9993;52.008;4.732;2022-11-21T23:06:38;9.93;;;6.60;;
19687;SDS011;9993;52.008;4.732;2022-11-21T23:09:10;10.40;;;5.40;;
19687;SDS011;9993;52.008;4.732;2022-11-21T23:11:38;10.10;;;6.50;;
19687;SDS011;9993;52.008;4.732;2022-11-21T23:14:27;5.77;;;4.30;;
19687;SDS011;9993;52.008;4.732;2022-11-21T23:17:13;8.97;;;6.50;;
19687;SDS011;9993;52.008;4.732;2022-11-21T23:19:44;10.40;;;7.27;;
19687;SDS011;9993;52.008;4.732;2022-11-21T23:22:12;10.67;;;5.60;;
19687;SDS011;9993;52.008;4.732;2022-11-21T23:24:40;9.33;;;5.40;;
19687;SDS011;9993;52.008;4.732;2022-11-21T23:27:05;12.17;;;6.07;;
19687;SDS011;9993;52.008;4.732;2022-11-21T23:29:30;10.03;;;7.40;;
19687;SDS011;9993;52.008;4.732;2022-11-21T23:31:56;12.50;;;6.90;;
19687;SDS011;9993;52.008;4.732;2022-11-21T23:34:21;8.77;;;6.73;;
19687;SDS011;9993;52.008;4.732;2022-11-21T23:36:46;5.87;;;5.13;;
19687;SDS011;9993;52.008;4.732;2022-11-21T23:39:12;9.43;;;6.50;;
19687;SDS011;9993;52.008;4.732;2022-11-21T23:41:37;8.77;;;5.03;;
19687;SDS011;9993;52.008;4.732;2022-11-21T23:44:02;8.70;;;6.00;;
19687;SDS011;9993;52.008;4.732;2022-11-21T23:46:27;11.27;;;6.80;;
19687;SDS011;9993;52.008;4.732;2022-11-21T23:48:53;8.10;;;6.23;;
19687;SDS011;9993;52.008;4.732;2022-11-21T23:51:18;6.33;;;5.73;;
19687;SDS011;9993;52.008;4.732;2022-11-21T23:53:44;11.37;;;7.47;;
19687;SDS011;9993;52.008;4.732;2022-11-21T23:56:09;10.33;;;6.67;;
19687;SDS011;9993;52.008;4.732;2022-11-21T23:58:35;12.03;;;7.83;;
